Time;durP1;ratioP1;P1;durP2;ratioP2;P2;SDS_P1;SDS_P2;PMS_P1;PMS_P2;Temp;Humidity;BMP_temperature;BMP_pressure;BME280_temperature;BME280_humidity;BME280_pressure;Samples;Min_cycle;Max_cycle;Signal;HPM_P1;HPM_P2
2023/01/03 00:00:48;;;;;;;51.50;22.93;;;;;;;;;;4980311;28;20703;-69
2023/01/03 00:03:16;;;;;;;47.60;22.30;;;;;;;;;;4995598;28;20203;-69
2023/01/03 00:05:43;;;;;;;55.67;23.70;;;;;;;;;;4986206;28;20195;-70
2023/01/03 00:08:09;;;;;;;46.07;22.40;;;;;;;;;;4990433;28;20204;-69
2023/01/03 00:10:34;;;;;;;50.27;23.03;;;;;;;;;;4994510;28;20203;-69
2023/01/03 00:13:00;;;;;;;47.80;22.33;;;;;;;;;;4984396;28;20206;-69
2023/01/03 00:15:25;;;;;;;48.53;23.20;;;;;;;;;;4983246;28;20246;-69
2023/01/03 00:17:51;;;;;;;56.60;24.70;;;;;;;;;;4981283;28;20215;-69
2023/01/03 00:20:17;;;;;;;49.13;24.90;;;;;;;;;;4979639;28;20196;-69
2023/01/03 00:22:42;;;;;;;53.53;26.07;;;;;;;;;;4991030;28;20207;-69
2023/01/03 00:25:08;;;;;;;54.93;25.60;;;;;;;;;;4985758;28;20244;-69
2023/01/03 00:27:33;;;;;;;53.80;26.97;;;;;;;;;;4988539;28;20194;-69
2023/01/03 00:29:59;;;;;;;51.33;25.97;;;;;;;;;;4990574;28;20220;-69
2023/01/03 00:32:25;;;;;;;54.57;27.67;;;;;;;;;;4983725;28;20196;-70
2023/01/03 00:34:50;;;;;;;53.17;26.93;;;;;;;;;;4984627;28;20203;-69
2023/01/03 00:37:15;;;;;;;59.93;27.37;;;;;;;;;;4987760;28;20211;-69
2023/01/03 00:39:42;;;;;;;59.73;28.83;;;;;;;;;;4989312;28;20192;-69
2023/01/03 00:42:08;;;;;;;58.37;28.97;;;;;;;;;;4987542;28;20246;-69
2023/01/03 00:44:33;;;;;;;56.17;29.13;;;;;;;;;;4997377;28;20191;-69
2023/01/03 00:46:59;;;;;;;55.80;28.00;;;;;;;;;;4995437;28;20188;-69
2023/01/03 00:49:24;;;;;;;67.20;29.43;;;;;;;;;;4988879;28;20333;-68
2023/01/03 00:51:52;;;;;;;62.97;29.70;;;;;;;;;;4987361;28;20187;-69
2023/01/03 00:54:18;;;;;;;62.23;29.67;;;;;;;;;;4984105;28;20187;-69
2023/01/03 00:56:45;;;;;;;66.23;29.87;;;;;;;;;;4987894;28;20257;-69
2023/01/03 00:59:11;;;;;;;69.60;31.03;;;;;;;;;;4985269;28;20699;-69
2023/01/03 01:01:42;;;;;;;60.97;31.60;;;;;;;;;;4985813;28;20211;-69
2023/01/03 01:04:16;;;;;;;55.90;26.37;;;;;;;;;;4985479;28;20192;-69
2023/01/03 01:06:44;;;;;;;64.37;29.93;;;;;;;;;;4980419;28;20210;-70
2023/01/03 01:09:12;;;;;;;65.00;30.53;;;;;;;;;;4991080;28;20270;-70
2023/01/03 01:11:37;;;;;;;62.23;29.03;;;;;;;;;;4984570;28;20239;-70
2023/01/03 01:14:18;;;;;;;61.27;30.50;;;;;;;;;;4988283;28;20215;-70
2023/01/03 01:16:46;;;;;;;64.83;30.60;;;;;;;;;;4983659;28;20215;-70
2023/01/03 01:19:11;;;;;;;58.33;30.00;;;;;;;;;;4985936;28;20194;-70
2023/01/03 01:21:37;;;;;;;68.70;32.00;;;;;;;;;;4993013;28;20195;-70
2023/01/03 01:24:02;;;;;;;64.43;31.13;;;;;;;;;;4991167;28;20245;-70
2023/01/03 01:26:28;;;;;;;70.97;31.27;;;;;;;;;;4986112;28;20562;-70
2023/01/03 01:28:54;;;;;;;63.63;30.60;;;;;;;;;;4989156;28;20192;-70
2023/01/03 01:31:21;;;;;;;68.40;29.97;;;;;;;;;;4989724;28;20191;-70
2023/01/03 01:33:47;;;;;;;70.43;30.97;;;;;;;;;;4984658;28;20194;-70
2023/01/03 01:36:26;;;;;;;73.40;31.40;;;;;;;;;;4991591;28;20647;-70
2023/01/03 01:38:56;;;;;;;74.00;30.90;;;;;;;;;;4995780;28;20191;-70
2023/01/03 01:44:45;;;;;;;72.60;30.50;;;;;;;;;;4987090;28;20331;-70
2023/01/03 01:47:36;;;;;;;69.33;29.80;;;;;;;;;;4994138;28;20191;-70
2023/01/03 01:50:05;;;;;;;66.77;30.07;;;;;;;;;;4987238;28;20203;-70
2023/01/03 01:52:33;;;;;;;70.83;31.30;;;;;;;;;;4992510;28;20193;-70
2023/01/03 01:55:00;;;;;;;78.40;32.90;;;;;;;;;;4985431;28;20253;-70
2023/01/03 01:57:26;;;;;;;76.60;31.90;;;;;;;;;;4986671;28;20199;-70
2023/01/03 01:59:52;;;;;;;71.20;32.23;;;;;;;;;;4996392;28;20214;-70
2023/01/03 02:02:20;;;;;;;70.93;30.80;;;;;;;;;;4992445;28;20206;-70
2023/01/03 02:04:47;;;;;;;80.90;32.80;;;;;;;;;;4996425;28;20205;-70
2023/01/03 02:07:13;;;;;;;68.07;31.20;;;;;;;;;;4985735;28;20183;-70
2023/01/03 02:09:38;;;;;;;74.10;32.83;;;;;;;;;;4987348;28;20214;-70
2023/01/03 02:15:24;;;;;;;75.03;29.70;;;;;;;;;;4981003;28;20221;-70
2023/01/03 02:18:02;;;;;;;79.67;30.37;;;;;;;;;;4991879;28;20233;-70
2023/01/03 02:20:56;;;;;;;89.77;33.27;;;;;;;;;;4991420;28;20249;-70
2023/01/03 02:23:54;;;;;;;81.73;32.97;;;;;;;;;;4992495;28;20322;-70
2023/01/03 02:26:57;;;;;;;66.17;30.20;;;;;;;;;;4990275;28;20215;-70
2023/01/03 02:29:53;;;;;;;77.67;31.97;;;;;;;;;;4980472;28;20195;-70
2023/01/03 02:32:27;;;;;;;74.57;31.07;;;;;;;;;;4984428;28;20723;-70
2023/01/03 02:35:20;;;;;;;76.30;32.33;;;;;;;;;;4987520;28;20665;-70
2023/01/03 02:38:03;;;;;;;79.40;31.03;;;;;;;;;;4986242;28;20214;-70
2023/01/03 02:40:56;;;;;;;84.23;32.40;;;;;;;;;;4980167;28;20192;-70
2023/01/03 02:43:41;;;;;;;76.30;31.67;;;;;;;;;;4980699;28;20203;-70
2023/01/03 02:46:12;;;;;;;81.73;33.40;;;;;;;;;;4982192;28;20596;-70
2023/01/03 02:48:52;;;;;;;84.50;32.43;;;;;;;;;;4986379;28;20283;-70
2023/01/03 02:51:24;;;;;;;83.73;31.87;;;;;;;;;;4979837;28;20183;-70
2023/01/03 02:53:50;;;;;;;78.60;31.07;;;;;;;;;;4980622;28;20192;-70
2023/01/03 02:56:24;;;;;;;77.10;30.50;;;;;;;;;;4984391;28;20753;-70
2023/01/03 02:58:56;;;;;;;86.30;33.60;;;;;;;;;;4976685;28;20195;-70
2023/01/03 03:01:22;;;;;;;82.30;32.40;;;;;;;;;;4977199;28;20207;-70
2023/01/03 03:03:48;;;;;;;81.13;31.60;;;;;;;;;;4981736;28;20188;-70
2023/01/03 03:06:33;;;;;;;86.83;33.07;;;;;;;;;;4986279;28;20187;-70
2023/01/03 03:08:58;;;;;;;79.27;30.40;;;;;;;;;;4977951;28;20184;-70
2023/01/03 03:14:21;;;;;;;73.80;29.87;;;;;;;;;;4981766;28;20195;-71
2023/01/03 03:16:52;;;;;;;84.93;31.17;;;;;;;;;;4981187;28;20217;-70
2023/01/03 03:25:32;;;;;;;77.50;29.50;;;;;;;;;;4986049;28;20202;-70
2023/01/03 03:30:55;;;;;;;80.70;30.23;;;;;;;;;;4977660;28;20230;-69
2023/01/03 03:33:24;;;;;;;69.20;29.13;;;;;;;;;;4989679;28;20205;-69
2023/01/03 03:35:56;;;;;;;73.33;30.30;;;;;;;;;;4980098;28;20626;-70
2023/01/03 03:38:27;;;;;;;76.13;31.13;;;;;;;;;;4975608;28;20287;-70
2023/01/03 03:47:17;;;;;;;71.83;28.63;;;;;;;;;;4984424;28;20192;-69
2023/01/03 03:49:48;;;;;;;81.67;29.33;;;;;;;;;;4981830;28;20218;-70
2023/01/03 03:52:17;;;;;;;94.60;32.77;;;;;;;;;;4992471;28;20195;-70
2023/01/03 03:54:48;;;;;;;82.97;30.27;;;;;;;;;;4992911;28;20218;-69
2023/01/03 03:57:27;;;;;;;79.87;29.37;;;;;;;;;;4991267;28;20203;-69
2023/01/03 03:59:57;;;;;;;93.07;31.53;;;;;;;;;;4983045;28;20698;-70
2023/01/03 04:02:26;;;;;;;78.23;30.40;;;;;;;;;;4987168;28;20209;-70
2023/01/03 04:04:56;;;;;;;71.03;29.37;;;;;;;;;;4996217;28;20300;-70
2023/01/03 04:07:22;;;;;;;90.87;33.67;;;;;;;;;;4994601;28;20191;-70
2023/01/03 04:09:47;;;;;;;91.83;32.93;;;;;;;;;;4979501;28;20195;-70
2023/01/03 04:12:12;;;;;;;94.17;32.53;;;;;;;;;;4996386;28;20228;-69
2023/01/03 04:14:38;;;;;;;120.63;38.07;;;;;;;;;;4995591;28;20200;-70
2023/01/03 04:17:03;;;;;;;117.57;36.23;;;;;;;;;;4988596;28;20211;-70
2023/01/03 04:19:28;;;;;;;142.43;40.10;;;;;;;;;;4989753;28;20214;-70
2023/01/03 04:21:54;;;;;;;146.53;38.17;;;;;;;;;;4981495;28;20640;-69
2023/01/03 04:24:21;;;;;;;135.47;38.93;;;;;;;;;;4988716;28;20254;-69
2023/01/03 04:26:46;;;;;;;301.20;47.03;;;;;;;;;;4983950;28;20203;-70
2023/01/03 04:29:12;;;;;;;216.93;41.73;;;;;;;;;;4990074;28;20258;-70
2023/01/03 04:31:37;;;;;;;232.07;42.63;;;;;;;;;;4985287;28;20655;-69
2023/01/03 04:34:03;;;;;;;342.00;47.03;;;;;;;;;;4993358;28;20274;-69
2023/01/03 04:36:28;;;;;;;323.17;48.77;;;;;;;;;;4981146;28;20222;-70
2023/01/03 04:38:53;;;;;;;248.50;45.47;;;;;;;;;;4984578;28;20257;-70
2023/01/03 04:41:19;;;;;;;319.87;48.07;;;;;;;;;;4988639;28;20192;-69
2023/01/03 04:44:03;;;;;;;309.33;46.03;;;;;;;;;;4991690;28;20196;-70
2023/01/03 04:46:39;;;;;;;259.93;41.07;;;;;;;;;;4986966;28;20190;-70
2023/01/03 04:49:06;;;;;;;351.90;47.80;;;;;;;;;;4983070;28;20314;-70
2023/01/03 04:51:31;;;;;;;393.73;51.47;;;;;;;;;;4985310;28;20195;-70
2023/01/03 04:53:57;;;;;;;578.17;65.07;;;;;;;;;;4989581;28;20716;-70
2023/01/03 04:56:28;;;;;;;422.53;52.37;;;;;;;;;;4989921;28;20211;-70
2023/01/03 04:58:54;;;;;;;516.27;58.40;;;;;;;;;;4973018;28;21436;-70
2023/01/03 05:01:19;;;;;;;538.93;61.27;;;;;;;;;;4973246;28;20219;-70
2023/01/03 05:03:45;;;;;;;418.63;54.43;;;;;;;;;;4978974;28;20208;-70
2023/01/03 05:06:11;;;;;;;315.80;50.67;;;;;;;;;;4979870;28;20218;-70
2023/01/03 05:08:37;;;;;;;321.90;49.53;;;;;;;;;;4991144;28;20262;-70
2023/01/03 05:11:04;;;;;;;184.30;39.70;;;;;;;;;;4988074;28;20238;-70
2023/01/03 05:13:29;;;;;;;406.77;53.73;;;;;;;;;;4988954;28;20492;-70
2023/01/03 05:15:55;;;;;;;475.17;58.13;;;;;;;;;;4989970;28;20226;-70
2023/01/03 05:18:20;;;;;;;387.67;51.30;;;;;;;;;;4987024;28;20286;-70
2023/01/03 05:26:17;;;;;;;285.57;51.33;;;;;;;;;;4988158;28;20198;-70
2023/01/03 05:28:46;;;;;;;216.33;47.77;;;;;;;;;;4985342;28;20199;-70
2023/01/03 05:31:12;;;;;;;194.03;47.43;;;;;;;;;;4987761;28;20295;-70
2023/01/03 05:33:38;;;;;;;228.53;51.03;;;;;;;;;;4983731;28;20291;-70
2023/01/03 05:36:04;;;;;;;215.10;51.20;;;;;;;;;;4983460;28;20671;-70
2023/01/03 05:38:30;;;;;;;202.20;50.00;;;;;;;;;;4979346;28;20230;-69
2023/01/03 05:40:55;;;;;;;165.70;51.00;;;;;;;;;;4982598;28;20215;-70
2023/01/03 05:43:21;;;;;;;148.20;48.00;;;;;;;;;;4983955;28;20246;-70
2023/01/03 05:45:50;;;;;;;136.37;48.43;;;;;;;;;;4979093;28;20187;-70
2023/01/03 05:48:16;;;;;;;107.30;42.10;;;;;;;;;;4988079;28;20204;-70
2023/01/03 05:50:41;;;;;;;139.73;47.83;;;;;;;;;;4983299;28;20330;-70
2023/01/03 05:53:07;;;;;;;144.47;48.80;;;;;;;;;;4988623;28;20575;-70
2023/01/03 05:55:35;;;;;;;136.03;47.27;;;;;;;;;;4982326;28;20223;-70
2023/01/03 05:58:01;;;;;;;120.40;43.90;;;;;;;;;;4990515;28;20265;-70
2023/01/03 06:00:27;;;;;;;119.33;44.03;;;;;;;;;;4984158;28;20715;-69
2023/01/03 06:02:53;;;;;;;125.53;46.07;;;;;;;;;;4990583;28;20650;-70
2023/01/03 06:05:18;;;;;;;121.70;44.23;;;;;;;;;;4994278;28;20207;-69
2023/01/03 06:07:43;;;;;;;120.13;44.67;;;;;;;;;;4994140;28;20218;-69
2023/01/03 06:10:09;;;;;;;107.40;43.17;;;;;;;;;;4992379;28;20510;-69
2023/01/03 06:12:34;;;;;;;86.30;38.77;;;;;;;;;;4999091;28;20195;-69
2023/01/03 06:15:00;;;;;;;113.87;45.30;;;;;;;;;;5000562;28;20773;-70
2023/01/03 06:20:09;;;;;;;109.50;43.80;;;;;;;;;;4993270;28;20194;-70
2023/01/03 06:22:34;;;;;;;108.93;43.33;;;;;;;;;;4994206;28;20338;-70
2023/01/03 06:25:00;;;;;;;99.53;40.90;;;;;;;;;;4996070;28;20785;-69
2023/01/03 06:27:25;;;;;;;88.17;37.70;;;;;;;;;;4997908;28;20195;-69
2023/01/03 06:29:50;;;;;;;98.30;40.90;;;;;;;;;;4991422;28;20225;-69
2023/01/03 06:32:16;;;;;;;103.43;41.30;;;;;;;;;;4994704;28;20301;-70
2023/01/03 06:34:41;;;;;;;108.97;41.07;;;;;;;;;;4987888;28;20624;-70
2023/01/03 06:37:07;;;;;;;102.23;38.70;;;;;;;;;;4987804;28;20290;-69
2023/01/03 06:39:33;;;;;;;102.03;39.87;;;;;;;;;;4992468;28;20265;-69
2023/01/03 06:42:38;;;;;;;97.33;39.23;;;;;;;;;;4986557;28;20191;-70
2023/01/03 06:53:10;;;;;;;107.57;39.70;;;;;;;;;;4994208;28;20238;-69
2023/01/03 06:53:14;;;;;;;103.87;40.87;;;;;;;;;;4970576;28;20222;-70
2023/01/03 06:55:41;;;;;;;93.17;39.33;;;;;;;;;;4991097;28;20238;-70
2023/01/03 06:58:07;;;;;;;95.83;38.83;;;;;;;;;;4984872;28;20195;-70
2023/01/03 07:00:35;;;;;;;88.40;37.77;;;;;;;;;;4989310;28;20265;-69
2023/01/03 07:03:00;;;;;;;101.67;40.97;;;;;;;;;;4987843;28;20195;-70
2023/01/03 07:05:25;;;;;;;104.20;40.03;;;;;;;;;;4982858;28;20203;-69
2023/01/03 07:07:51;;;;;;;106.80;40.63;;;;;;;;;;4990483;28;20245;-69
2023/01/03 07:10:16;;;;;;;99.23;40.27;;;;;;;;;;4985772;28;20194;-69
2023/01/03 07:15:26;;;;;;;104.87;39.93;;;;;;;;;;4984066;28;20198;-69
2023/01/03 07:17:51;;;;;;;110.73;42.70;;;;;;;;;;4983740;28;20238;-70
2023/01/03 07:20:16;;;;;;;106.80;41.70;;;;;;;;;;4997472;28;20282;-69
2023/01/03 07:22:42;;;;;;;114.83;45.27;;;;;;;;;;4992265;28;20588;-70
2023/01/03 07:25:07;;;;;;;116.57;44.23;;;;;;;;;;4987909;28;20234;-70
2023/01/03 07:27:33;;;;;;;118.57;43.37;;;;;;;;;;4982587;28;20620;-70
2023/01/03 07:29:58;;;;;;;102.47;40.80;;;;;;;;;;4981674;28;20184;-70
2023/01/03 07:32:24;;;;;;;125.73;44.40;;;;;;;;;;4982671;28;20299;-69
2023/01/03 07:34:49;;;;;;;111.30;44.63;;;;;;;;;;4990059;28;20569;-69
2023/01/03 07:37:14;;;;;;;126.23;46.67;;;;;;;;;;4987835;28;20215;-69
2023/01/03 07:39:40;;;;;;;120.50;45.67;;;;;;;;;;4975030;28;20239;-69
2023/01/03 07:44:49;;;;;;;106.17;44.50;;;;;;;;;;4989926;28;20536;-69
2023/01/03 07:47:14;;;;;;;97.33;42.97;;;;;;;;;;4989966;28;20210;-69
2023/01/03 07:49:40;;;;;;;101.17;42.67;;;;;;;;;;4987542;28;20187;-69
2023/01/03 07:52:05;;;;;;;115.87;46.47;;;;;;;;;;4988671;28;20206;-69
2023/01/03 07:54:30;;;;;;;110.77;43.90;;;;;;;;;;4991383;28;20254;-69
2023/01/03 07:56:56;;;;;;;102.17;45.00;;;;;;;;;;4987317;28;20216;-69
2023/01/03 07:59:21;;;;;;;105.23;45.67;;;;;;;;;;4988576;28;20237;-69
2023/01/03 08:01:46;;;;;;;95.67;43.97;;;;;;;;;;4985936;28;20580;-69
2023/01/03 08:04:12;;;;;;;111.03;45.30;;;;;;;;;;4990949;28;20172;-69
2023/01/03 08:06:37;;;;;;;105.87;45.07;;;;;;;;;;5002721;28;20460;-69
2023/01/03 08:14:30;;;;;;;96.57;41.30;;;;;;;;;;4989211;28;20194;-69
2023/01/03 08:16:56;;;;;;;96.53;43.60;;;;;;;;;;4980022;28;20311;-69
2023/01/03 08:19:22;;;;;;;99.73;43.53;;;;;;;;;;4991199;28;20225;-69
2023/01/03 08:21:47;;;;;;;110.03;44.80;;;;;;;;;;4980375;28;20192;-70
2023/01/03 08:24:13;;;;;;;95.90;43.07;;;;;;;;;;4985507;28;20311;-69
2023/01/03 08:26:38;;;;;;;101.43;42.93;;;;;;;;;;4989526;28;20195;-69
2023/01/03 08:29:03;;;;;;;97.87;42.10;;;;;;;;;;5000544;28;20199;-69
2023/01/03 08:31:34;;;;;;;81.20;37.80;;;;;;;;;;4994326;28;20183;-69
2023/01/03 08:34:02;;;;;;;94.40;41.00;;;;;;;;;;4998833;28;20223;-69
2023/01/03 08:36:33;;;;;;;89.53;40.53;;;;;;;;;;4993659;28;20278;-69
2023/01/03 08:39:03;;;;;;;92.70;39.50;;;;;;;;;;4993225;28;20574;-69
2023/01/03 08:41:31;;;;;;;88.23;39.10;;;;;;;;;;4990475;28;20217;-69
2023/01/03 08:43:59;;;;;;;86.90;39.33;;;;;;;;;;4969791;28;20196;-69
2023/01/03 08:46:26;;;;;;;79.47;34.73;;;;;;;;;;4997440;28;20658;-69
2023/01/03 08:48:53;;;;;;;74.77;35.10;;;;;;;;;;4996640;28;20183;-69
2023/01/03 08:51:18;;;;;;;77.60;35.10;;;;;;;;;;4997461;28;20655;-69
2023/01/03 08:53:44;;;;;;;73.27;35.10;;;;;;;;;;4995357;28;20195;-69
2023/01/03 08:56:09;;;;;;;76.30;34.27;;;;;;;;;;4994021;28;20691;-69
2023/01/03 08:58:34;;;;;;;74.67;34.50;;;;;;;;;;4996305;28;20190;-69
2023/01/03 09:01:04;;;;;;;71.00;34.17;;;;;;;;;;5001995;28;20198;-69
2023/01/03 09:03:30;;;;;;;68.53;33.20;;;;;;;;;;4996208;28;20203;-69
2023/01/03 09:06:00;;;;;;;66.30;32.33;;;;;;;;;;4983362;28;20192;-69
2023/01/03 09:08:28;;;;;;;65.37;32.10;;;;;;;;;;4994149;28;20200;-69
2023/01/03 09:10:53;;;;;;;66.27;30.60;;;;;;;;;;4989939;28;20199;-69
2023/01/03 09:13:19;;;;;;;64.53;30.57;;;;;;;;;;4994790;28;20184;-69
2023/01/03 09:15:44;;;;;;;61.23;30.37;;;;;;;;;;4999691;28;20203;-69
2023/01/03 09:18:10;;;;;;;56.87;29.07;;;;;;;;;;4995095;28;20300;-69
2023/01/03 09:20:35;;;;;;;59.30;28.33;;;;;;;;;;4976141;28;20214;-69
2023/01/03 09:23:01;;;;;;;56.40;27.77;;;;;;;;;;4988117;28;20206;-69
2023/01/03 09:25:26;;;;;;;54.93;28.50;;;;;;;;;;4993158;28;20671;-68
2023/01/03 09:27:51;;;;;;;49.47;26.20;;;;;;;;;;4989841;28;20616;-68
2023/01/03 09:30:18;;;;;;;52.17;26.03;;;;;;;;;;4999180;28;20258;-68
2023/01/03 09:32:44;;;;;;;47.33;25.40;;;;;;;;;;4996990;28;20609;-68
2023/01/03 09:35:09;;;;;;;47.87;25.67;;;;;;;;;;4997589;28;20207;-68
2023/01/03 09:37:35;;;;;;;49.67;26.37;;;;;;;;;;4990333;28;20227;-68
2023/01/03 09:40:00;;;;;;;46.03;23.27;;;;;;;;;;4989133;28;20478;-68
2023/01/03 09:45:19;;;;;;;41.20;23.23;;;;;;;;;;5002317;28;20237;-68
2023/01/03 09:47:45;;;;;;;46.77;22.03;;;;;;;;;;4999939;28;20575;-69
2023/01/03 09:50:22;;;;;;;39.80;21.07;;;;;;;;;;5002525;28;20191;-69
2023/01/03 10:04:53;;;;;;;36.67;19.13;;;;;;;;;;4986292;28;20249;-68
2023/01/03 10:07:27;;;;;;;37.07;18.97;;;;;;;;;;4993533;28;20284;-68
2023/01/03 10:10:32;;;;;;;31.20;17.77;;;;;;;;;;4995630;28;20195;-67
2023/01/03 10:13:06;;;;;;;31.70;16.60;;;;;;;;;;5003181;28;20194;-67
2023/01/03 10:16:05;;;;;;;28.80;15.93;;;;;;;;;;4993177;28;20214;-68
2023/01/03 10:18:58;;;;;;;25.50;14.90;;;;;;;;;;4997958;28;20262;-68
2023/01/03 10:21:56;;;;;;;26.60;14.53;;;;;;;;;;4996414;28;20240;-67
2023/01/03 10:24:30;;;;;;;29.47;14.87;;;;;;;;;;4983613;28;20246;-67
2023/01/03 10:27:13;;;;;;;23.63;14.10;;;;;;;;;;4988166;28;20380;-68
2023/01/03 10:29:38;;;;;;;20.90;14.00;;;;;;;;;;4998209;28;20667;-68
2023/01/03 10:32:22;;;;;;;25.13;14.37;;;;;;;;;;4990796;28;20187;-68
2023/01/03 10:35:18;;;;;;;25.90;13.67;;;;;;;;;;4989088;28;20662;-67
2023/01/03 10:37:44;;;;;;;21.80;12.83;;;;;;;;;;4992643;28;20750;-68
2023/01/03 10:40:11;;;;;;;18.90;11.93;;;;;;;;;;4996402;28;20186;-68
2023/01/03 10:42:39;;;;;;;20.73;12.15;;;;;;;;;;4997413;28;20274;-67
2023/01/03 10:45:15;;;;;;;19.50;12.10;;;;;;;;;;5001075;28;20201;-67
2023/01/03 10:47:41;;;;;;;22.37;12.27;;;;;;;;;;4996390;28;20196;-67
2023/01/03 10:50:19;;;;;;;19.60;11.77;;;;;;;;;;4999554;28;20264;-67
2023/01/03 10:52:46;;;;;;;19.13;11.17;;;;;;;;;;4985420;28;20187;-67
2023/01/03 10:55:15;;;;;;;17.33;11.37;;;;;;;;;;4997852;28;20186;-67
2023/01/03 10:57:44;;;;;;;22.87;11.63;;;;;;;;;;4994677;28;20200;-66
2023/01/03 11:00:19;;;;;;;20.47;12.37;;;;;;;;;;5000067;28;20603;-67
2023/01/03 11:02:45;;;;;;;19.83;10.40;;;;;;;;;;4985674;28;20267;-67
2023/01/03 11:05:16;;;;;;;18.27;10.83;;;;;;;;;;4999181;28;20542;-67
2023/01/03 11:07:43;;;;;;;19.23;11.13;;;;;;;;;;4996912;28;20577;-67
2023/01/03 11:10:19;;;;;;;18.10;11.27;;;;;;;;;;5003391;28;20608;-66
2023/01/03 11:12:45;;;;;;;19.37;10.73;;;;;;;;;;4984564;28;20194;-66
2023/01/03 11:15:30;;;;;;;20.10;11.40;;;;;;;;;;5000400;28;20661;-66
2023/01/03 11:18:01;;;;;;;20.60;10.93;;;;;;;;;;5003133;28;20175;-67
2023/01/03 11:20:39;;;;;;;21.00;11.80;;;;;;;;;;5003653;28;20269;-67
2023/01/03 11:23:15;;;;;;;21.30;12.10;;;;;;;;;;4985701;28;20206;-67
2023/01/03 11:26:01;;;;;;;20.50;11.77;;;;;;;;;;4990123;28;20191;-67
2023/01/03 11:28:46;;;;;;;19.80;11.23;;;;;;;;;;4987493;28;20203;-68
2023/01/03 11:31:35;;;;;;;20.60;11.67;;;;;;;;;;4988225;28;20686;-67
2023/01/03 11:34:03;;;;;;;24.10;10.77;;;;;;;;;;4993937;28;20210;-67
2023/01/03 11:37:05;;;;;;;23.50;12.63;;;;;;;;;;4994027;28;20215;-67
2023/01/03 11:39:50;;;;;;;23.57;11.47;;;;;;;;;;4982010;28;20198;-67
2023/01/03 11:42:32;;;;;;;25.17;12.07;;;;;;;;;;4993741;28;20219;-67
2023/01/03 11:45:40;;;;;;;26.43;12.33;;;;;;;;;;4989476;28;20194;-67
2023/01/03 11:48:27;;;;;;;21.10;10.80;;;;;;;;;;4989196;28;20199;-67
2023/01/03 11:51:16;;;;;;;22.83;12.63;;;;;;;;;;4990856;28;20195;-67
2023/01/03 11:54:01;;;;;;;22.33;12.07;;;;;;;;;;4988141;28;20631;-67
2023/01/03 11:56:37;;;;;;;20.17;11.73;;;;;;;;;;4996469;28;20238;-67
2023/01/03 11:59:23;;;;;;;20.97;11.07;;;;;;;;;;4997159;28;20202;-67
2023/01/03 12:02:16;;;;;;;21.13;10.70;;;;;;;;;;4995934;28;20255;-68
2023/01/03 12:04:52;;;;;;;25.97;10.63;;;;;;;;;;4989751;28;20238;-67
2023/01/03 12:07:56;;;;;;;17.47;11.07;;;;;;;;;;4980810;28;20318;-68
2023/01/03 12:10:52;;;;;;;19.60;11.13;;;;;;;;;;4978322;28;20435;-67
2023/01/03 12:13:32;;;;;;;17.90;10.30;;;;;;;;;;4988202;28;20624;-67
2023/01/03 12:16:05;;;;;;;18.23;10.50;;;;;;;;;;4993969;28;20221;-67
2023/01/03 12:18:52;;;;;;;16.77;9.83;;;;;;;;;;4992184;28;20191;-67
2023/01/03 12:21:52;;;;;;;15.13;10.20;;;;;;;;;;4985831;28;20468;-67
2023/01/03 12:24:43;;;;;;;19.00;10.00;;;;;;;;;;4969667;28;20235;-67
2023/01/03 12:27:35;;;;;;;20.13;9.83;;;;;;;;;;4973480;28;20192;-67
2023/01/03 12:30:12;;;;;;;17.40;10.80;;;;;;;;;;4957178;28;20295;-67
2023/01/03 12:33:20;;;;;;;17.70;9.93;;;;;;;;;;4968196;28;20946;-67
2023/01/03 12:35:56;;;;;;;17.80;9.43;;;;;;;;;;4970943;28;20230;-67
2023/01/03 12:38:28;;;;;;;21.07;10.70;;;;;;;;;;4971878;28;20215;-67
2023/01/03 12:41:03;;;;;;;20.50;10.10;;;;;;;;;;4970152;28;20246;-67
2023/01/03 12:43:49;;;;;;;15.57;9.57;;;;;;;;;;4971900;28;20298;-67
2023/01/03 12:46:18;;;;;;;20.48;9.55;;;;;;;;;;4963304;28;20192;-67
2023/01/03 12:49:04;;;;;;;16.58;9.35;;;;;;;;;;4954109;28;20367;-67
2023/01/03 12:51:29;;;;;;;14.77;9.23;;;;;;;;;;4970976;28;20648;-67
2023/01/03 12:54:32;;;;;;;16.10;9.40;;;;;;;;;;4960280;28;20255;-67
2023/01/03 12:57:16;;;;;;;16.58;9.48;;;;;;;;;;4964147;28;20239;-67
2023/01/03 13:00:19;;;;;;;17.05;9.00;;;;;;;;;;4973047;28;20246;-67
2023/01/03 13:03:01;;;;;;;16.15;8.80;;;;;;;;;;4969215;28;20709;-67
2023/01/03 13:05:42;;;;;;;17.67;9.48;;;;;;;;;;4980871;28;20203;-67
2023/01/03 13:08:19;;;;;;;16.55;9.45;;;;;;;;;;4986098;28;20822;-67
2023/01/03 13:10:49;;;;;;;19.15;9.25;;;;;;;;;;4980709;28;20192;-67
2023/01/03 13:13:17;;;;;;;15.25;9.10;;;;;;;;;;4979783;28;20450;-68
2023/01/03 13:15:45;;;;;;;18.07;9.40;;;;;;;;;;4979787;28;20184;-68
2023/01/03 13:18:32;;;;;;;19.87;9.50;;;;;;;;;;4977480;28;20192;-68
2023/01/03 13:20:58;;;;;;;16.13;9.60;;;;;;;;;;4292314;28;10000726;-68
2023/01/03 13:23:40;;;;;;;16.60;9.50;;;;;;;;;;4961453;28;20547;-68
2023/01/03 13:26:22;;;;;;;14.40;9.23;;;;;;;;;;4990463;28;20211;-68
2023/01/03 13:28:47;;;;;;;17.47;9.40;;;;;;;;;;4990796;28;20679;-67
2023/01/03 13:31:19;;;;;;;18.30;9.73;;;;;;;;;;4975595;28;20195;-67
2023/01/03 13:33:47;;;;;;;18.13;9.48;;;;;;;;;;4984579;28;20210;-72
2023/01/03 13:36:14;;;;;;;17.05;10.27;;;;;;;;;;4982658;28;20211;-68
2023/01/03 13:38:40;;;;;;;16.13;8.93;;;;;;;;;;4988395;28;20194;-67
2023/01/03 13:41:36;;;;;;;18.05;9.85;;;;;;;;;;4991337;28;20553;-67
2023/01/03 13:44:20;;;;;;;19.07;10.33;;;;;;;;;;4987314;28;20182;-69
2023/01/03 13:46:47;;;;;;;17.93;10.40;;;;;;;;;;4982604;28;20217;-67
2023/01/03 13:49:22;;;;;;;23.30;10.60;;;;;;;;;;4987037;28;20490;-67
2023/01/03 13:51:53;;;;;;;19.27;9.40;;;;;;;;;;4969247;28;20266;-67
2023/01/03 13:54:18;;;;;;;17.50;9.60;;;;;;;;;;4990650;28;20196;-68
2023/01/03 13:56:43;;;;;;;16.75;9.43;;;;;;;;;;4996785;28;20210;-67
2023/01/03 13:59:18;;;;;;;18.70;10.82;;;;;;;;;;5000241;28;20678;-67
2023/01/03 14:02:05;;;;;;;15.93;9.70;;;;;;;;;;4991798;28;20677;-67
2023/01/03 14:05:01;;;;;;;16.10;10.03;;;;;;;;;;4980331;28;20195;-68
2023/01/03 14:08:04;;;;;;;22.02;10.02;;;;;;;;;;4985778;28;20204;-67
2023/01/03 14:11:01;;;;;;;19.33;9.63;;;;;;;;;;4985354;28;21473;-67
2023/01/03 14:13:34;;;;;;;13.60;9.80;;;;;;;;;;4982396;28;20219;-68
2023/01/03 14:16:16;;;;;;;18.17;9.55;;;;;;;;;;4988128;28;20667;-67
2023/01/03 14:18:47;;;;;;;16.33;9.55;;;;;;;;;;4993020;28;20690;-67
2023/01/03 14:21:23;;;;;;;16.92;9.95;;;;;;;;;;4986095;28;20208;-67
2023/01/03 14:23:48;;;;;;;15.30;9.60;;;;;;;;;;4986344;28;20303;-67
2023/01/03 14:26:16;;;;;;;18.25;9.25;;;;;;;;;;4990681;28;20257;-67
2023/01/03 14:28:47;;;;;;;12.88;9.05;;;;;;;;;;4997855;28;20282;-67
2023/01/03 14:31:23;;;;;;;16.42;9.15;;;;;;;;;;4988509;28;20703;-67
2023/01/03 14:34:00;;;;;;;18.38;9.43;;;;;;;;;;4998136;28;20260;-67
2023/01/03 14:36:26;;;;;;;13.07;8.85;;;;;;;;;;4987888;28;20317;-67
2023/01/03 14:38:59;;;;;;;18.02;8.60;;;;;;;;;;4998527;28;20199;-67
2023/01/03 14:41:36;;;;;;;13.65;8.60;;;;;;;;;;5000112;28;20194;-67
2023/01/03 14:44:03;;;;;;;14.38;8.60;;;;;;;;;;4994175;28;20268;-67
2023/01/03 14:46:30;;;;;;;13.18;8.35;;;;;;;;;;5006647;28;20571;-67
2023/01/03 14:48:58;;;;;;;14.35;8.60;;;;;;;;;;4993042;28;20192;-67
2023/01/03 14:51:23;;;;;;;14.82;8.15;;;;;;;;;;4998214;28;20407;-67
2023/01/03 14:53:50;;;;;;;12.82;7.93;;;;;;;;;;4992344;28;20195;-67
2023/01/03 14:56:19;;;;;;;15.53;8.73;;;;;;;;;;4996578;28;20249;-66
2023/01/03 14:58:46;;;;;;;15.18;7.57;;;;;;;;;;4994073;28;20255;-67
2023/01/03 15:01:13;;;;;;;16.70;8.35;;;;;;;;;;4988568;28;20230;-65
2023/01/03 15:03:43;;;;;;;11.77;7.28;;;;;;;;;;4994654;28;20489;-68
2023/01/03 15:06:35;;;;;;;11.45;7.63;;;;;;;;;;4989877;28;20602;-68
2023/01/03 15:09:18;;;;;;;12.70;7.80;;;;;;;;;;4993548;28;20704;-68
2023/01/03 15:11:55;;;;;;;13.25;7.85;;;;;;;;;;4997151;28;20475;-68
2023/01/03 15:14:23;;;;;;;13.05;8.35;;;;;;;;;;4991601;28;20195;-68
2023/01/03 15:16:50;;;;;;;15.50;8.07;;;;;;;;;;4987917;28;20242;-68
2023/01/03 15:19:22;;;;;;;14.97;9.83;;;;;;;;;;4992334;28;20191;-67
2023/01/03 15:21:48;;;;;;;15.73;9.30;;;;;;;;;;4992730;28;20199;-68
2023/01/03 15:24:19;;;;;;;19.95;8.25;;;;;;;;;;4992631;28;20491;-68
2023/01/03 15:26:46;;;;;;;15.88;9.05;;;;;;;;;;4991920;28;20714;-67
2023/01/03 15:29:23;;;;;;;13.13;8.10;;;;;;;;;;4994597;28;20198;-68
2023/01/03 15:31:59;;;;;;;16.90;8.13;;;;;;;;;;4982851;28;20723;-67
2023/01/03 15:34:37;;;;;;;13.00;7.80;;;;;;;;;;4992345;28;20218;-68
2023/01/03 15:37:20;;;;;;;13.93;8.33;;;;;;;;;;4995122;28;20206;-68
2023/01/03 15:39:52;;;;;;;16.50;8.67;;;;;;;;;;4991102;28;20690;-67
2023/01/03 15:45:26;;;;;;;11.18;7.55;;;;;;;;;;4994623;28;20199;-67
2023/01/03 15:47:55;;;;;;;13.60;7.68;;;;;;;;;;4991296;28;20187;-67
2023/01/03 15:50:21;;;;;;;15.90;8.20;;;;;;;;;;4986972;28;20786;-68